sensor_id;sensor_type;location;lat;lon;timestamp;P1;durP1;ratioP1;P2;durP2;ratioP2
71955;SDS011;59829;50.562;6.258;2022-08-19T00:07:51;0.98;;;0.60;;
71955;SDS011;59829;50.562;6.258;2022-08-19T00:17:51;0.80;;;0.60;;
71955;SDS011;59829;50.562;6.258;2022-08-19T00:27:52;1.00;;;0.88;;
71955;SDS011;59829;50.562;6.258;2022-08-19T00:37:53;0.85;;;0.70;;
71955;SDS011;59829;50.562;6.258;2022-08-19T00:47:54;0.80;;;0.60;;
71955;SDS011;59829;50.562;6.258;2022-08-19T00:57:55;0.30;;;0.30;;
71955;SDS011;59829;50.562;6.258;2022-08-19T01:08:00;0.57;;;0.40;;
71955;SDS011;59829;50.562;6.258;2022-08-19T01:18:07;0.93;;;0.70;;
71955;SDS011;59829;50.562;6.258;2022-08-19T01:28:14;1.08;;;0.73;;
71955;SDS011;59829;50.562;6.258;2022-08-19T01:38:22;0.57;;;0.50;;
71955;SDS011;59829;50.562;6.258;2022-08-19T01:48:24;0.60;;;0.50;;
71955;SDS011;59829;50.562;6.258;2022-08-19T01:58:28;0.52;;;0.35;;
71955;SDS011;59829;50.562;6.258;2022-08-19T02:08:33;0.30;;;0.28;;
71955;SDS011;59829;50.562;6.258;2022-08-19T02:18:36;0.63;;;0.43;;
71955;SDS011;59829;50.562;6.258;2022-08-19T02:28:37;0.45;;;0.45;;
71955;SDS011;59829;50.562;6.258;2022-08-19T02:38:38;0.30;;;0.30;;
71955;SDS011;59829;50.562;6.258;2022-08-19T02:48:39;0.47;;;0.47;;
71955;SDS011;59829;50.562;6.258;2022-08-19T02:58:40;0.70;;;0.70;;
71955;SDS011;59829;50.562;6.258;2022-08-19T03:08:42;1.38;;;1.08;;
71955;SDS011;59829;50.562;6.258;2022-08-19T03:28:44;1.30;;;1.00;;
71955;SDS011;59829;50.562;6.258;2022-08-19T03:38:50;0.70;;;0.52;;
71955;SDS011;59829;50.562;6.258;2022-08-19T03:48:55;0.98;;;0.80;;
71955;SDS011;59829;50.562;6.258;2022-08-19T04:08:59;1.98;;;1.45;;
71955;SDS011;59829;50.562;6.258;2022-08-19T04:19:02;1.58;;;1.25;;
71955;SDS011;59829;50.562;6.258;2022-08-19T04:29:05;3.53;;;2.25;;
71955;SDS011;59829;50.562;6.258;2022-08-19T04:39:09;11.65;;;6.45;;
71955;SDS011;59829;50.562;6.258;2022-08-19T04:49:17;16.65;;;8.88;;
71955;SDS011;59829;50.562;6.258;2022-08-19T05:09:21;7.68;;;4.07;;
71955;SDS011;59829;50.562;6.258;2022-08-19T17:13:45;1.95;;;1.23;;
71955;SDS011;59829;50.562;6.258;2022-08-19T17:23:46;1.10;;;1.00;;
71955;SDS011;59829;50.562;6.258;2022-08-19T17:33:47;1.40;;;1.10;;
71955;SDS011;59829;50.562;6.258;2022-08-19T17:43:49;1.60;;;1.20;;
71955;SDS011;59829;50.562;6.258;2022-08-19T17:53:50;0.70;;;0.60;;
71955;SDS011;59829;50.562;6.258;2022-08-19T18:03:53;1.88;;;1.25;;
71955;SDS011;59829;50.562;6.258;2022-08-19T18:13:53;2.42;;;1.40;;
71955;SDS011;59829;50.562;6.258;2022-08-19T18:23:53;1.20;;;1.00;;
71955;SDS011;59829;50.562;6.258;2022-08-19T18:33:54;1.05;;;0.75;;
71955;SDS011;59829;50.562;6.258;2022-08-19T18:43:54;1.23;;;1.10;;
71955;SDS011;59829;50.562;6.258;2022-08-19T18:54:13;4.03;;;1.50;;
71955;SDS011;59829;50.562;6.258;2022-08-19T19:04:14;0.95;;;0.80;;
71955;SDS011;59829;50.562;6.258;2022-08-19T19:14:16;2.63;;;1.20;;
71955;SDS011;59829;50.562;6.258;2022-08-19T19:24:23;1.88;;;1.00;;
71955;SDS011;59829;50.562;6.258;2022-08-19T19:34:28;2.67;;;1.50;;
71955;SDS011;59829;50.562;6.258;2022-08-19T19:44:28;2.95;;;1.52;;
71955;SDS011;59829;50.562;6.258;2022-08-19T19:54:28;2.00;;;1.20;;
71955;SDS011;59829;50.562;6.258;2022-08-19T20:04:29;1.35;;;1.00;;
71955;SDS011;59829;50.562;6.258;2022-08-19T20:14:31;1.10;;;0.70;;
71955;SDS011;59829;50.562;6.258;2022-08-19T20:24:34;1.80;;;0.80;;
71955;SDS011;59829;50.562;6.258;2022-08-19T20:34:35;2.67;;;1.50;;
71955;SDS011;59829;50.562;6.258;2022-08-19T20:44:36;1.90;;;1.70;;
71955;SDS011;59829;50.562;6.258;2022-08-19T20:54:36;1.97;;;1.43;;
71955;SDS011;59829;50.562;6.258;2022-08-19T21:04:37;3.85;;;2.28;;
71955;SDS011;59829;50.562;6.258;2022-08-19T21:14:38;2.92;;;2.10;;
71955;SDS011;59829;50.562;6.258;2022-08-19T21:34:42;3.47;;;2.13;;
71955;SDS011;59829;50.562;6.258;2022-08-19T21:44:42;5.47;;;3.10;;
71955;SDS011;59829;50.562;6.258;2022-08-19T21:54:42;5.68;;;2.75;;
71955;SDS011;59829;50.562;6.258;2022-08-19T22:04:45;5.13;;;3.50;;
71955;SDS011;59829;50.562;6.258;2022-08-19T22:14:46;4.43;;;2.97;;
71955;SDS011;59829;50.562;6.258;2022-08-19T22:24:46;4.50;;;2.97;;
71955;SDS011;59829;50.562;6.258;2022-08-19T22:34:47;3.58;;;2.53;;
71955;SDS011;59829;50.562;6.258;2022-08-19T22:44:47;5.68;;;3.65;;
71955;SDS011;59829;50.562;6.258;2022-08-19T22:54:49;4.18;;;2.50;;
71955;SDS011;59829;50.562;6.258;2022-08-19T23:04:54;5.07;;;1.70;;
